Genesis Freedom — WDG9353 — position and weather

sailwx.info

Track history (hours):
 
Tides and Currents Weather Stations Pressure Air Temp Water Temp Dewpoint Dewpoint Depression Visibility Wind Speed Wind Dir Waves Ship Positions

Genesis Freedom

Owner: Genesis Marine, LLC, Houston, TX. More information available from US FCC via Universal Licensing System and Coast Guard Vessel Documentation Center.

Last reported at 2017-Oct-22 13:16 UTC. Time now 2017-Oct-22 23:05 UTC.
Position N 29°23' W 094°49'.

Length 149 m; draft 9 m.

Type: . MMSI: 367586890.

Date/timePositionNaut miles runAvg speedWind from/ knotsBaromVisibWave heightAir tempDewpointWater temp
2017-Oct-22 13:16N 29°23' W 094°49'2 9.1
2017-Oct-22 12:59N 29°25' W 094°50'5 8.5
2017-Oct-22 12:27N 29°30' W 094°52'4 8.3
2017-Oct-22 12:00N 29°33' W 094°54'4 8.2
2017-Oct-22 11:30N 29°36' W 094°57'4 8.4
2017-Oct-22 11:00N 29°40' W 094°59'4 7.6
2017-Oct-22 10:26N 29°44' W 095°01'3 7.5
2017-Oct-22 10:00N 29°46' W 095°04'2 0.1
2017-Oct-21 08:44N 29°45' W 095°06'0 0.1
2017-Oct-21 08:24N 29°45' W 095°06'1 2.0
2017-Oct-21 08:00N 29°45' W 095°06'5 6.5
2017-Oct-21 07:18N 29°43' W 095°01'2 8.0
2017-Oct-21 07:00N 29°41' W 094°59'5 9.1
2017-Oct-21 06:29N 29°37' W 094°57'  
2017-Oct-14 13:44N 29°24' W 094°49'3 8.7
2017-Oct-14 13:26N 29°26' W 094°50'3 8.2
2017-Oct-14 13:00N 29°30' W 094°52'4 7.9
2017-Oct-14 12:30N 29°33' W 094°54'4 8.0
2017-Oct-14 12:00N 29°36' W 094°57'4 8.4
2017-Oct-14 11:30N 29°40' W 094°59'4 7.2
2017-Oct-14 10:57N 29°43' W 095°01'3 7.1
2017-Oct-14 10:27N 29°46' W 095°04'2 0.1
2017-Oct-13 09:03N 29°45' W 095°06'0 1.5
2017-Oct-13 08:47N 29°45' W 095°06'2 4.7
2017-Oct-13 08:25N 29°45' W 095°04'3 7.5
2017-Oct-13 08:00N 29°43' W 095°01'5 9.0
2017-Oct-13 07:28N 29°39' W 094°58'2110.3
2017-Oct-13 05:24N 29°21' W 094°45'  
Track history (hours):
 
Tides and Currents Weather Stations Pressure Air Temp Water Temp Dewpoint Dewpoint Depression Visibility Wind Speed Wind Dir Waves Ship Positions

Genesis Freedom

Owner: Genesis Marine, LLC, Houston, TX. More information available from US FCC via Universal Licensing System and Coast Guard Vessel Documentation Center.

Last reported at 2017-Oct-22 13:16 UTC. Time now 2017-Oct-22 23:05 UTC.
Position N 29°23' W 094°49'.

Length 149 m; draft 9 m.

Type: . MMSI: 367586890.

Date/timePositionNaut miles runAvg speedWind from/ knotsBaromVisibWave heightAir tempDewpointWater temp
2017-Oct-22 13:16N 29°23' W 094°49'2 9.1
2017-Oct-22 12:59N 29°25' W 094°50'5 8.5
2017-Oct-22 12:27N 29°30' W 094°52'4 8.3
2017-Oct-22 12:00N 29°33' W 094°54'4 8.2
2017-Oct-22 11:30N 29°36' W 094°57'4 8.4
2017-Oct-22 11:00N 29°40' W 094°59'4 7.6
2017-Oct-22 10:26N 29°44' W 095°01'3 7.5
2017-Oct-22 10:00N 29°46' W 095°04'2 0.1
2017-Oct-21 08:44N 29°45' W 095°06'0 0.1
2017-Oct-21 08:24N 29°45' W 095°06'1 2.0
2017-Oct-21 08:00N 29°45' W 095°06'5 6.5
2017-Oct-21 07:18N 29°43' W 095°01'2 8.0
2017-Oct-21 07:00N 29°41' W 094°59'5 9.1
2017-Oct-21 06:29N 29°37' W 094°57'  
2017-Oct-14 13:44N 29°24' W 094°49'3 8.7
2017-Oct-14 13:26N 29°26' W 094°50'3 8.2
2017-Oct-14 13:00N 29°30' W 094°52'4 7.9
2017-Oct-14 12:30N 29°33' W 094°54'4 8.0
2017-Oct-14 12:00N 29°36' W 094°57'4 8.4
2017-Oct-14 11:30N 29°40' W 094°59'4 7.2
2017-Oct-14 10:57N 29°43' W 095°01'3 7.1
2017-Oct-14 10:27N 29°46' W 095°04'2 0.1
2017-Oct-13 09:03N 29°45' W 095°06'0 1.5
2017-Oct-13 08:47N 29°45' W 095°06'2 4.7
2017-Oct-13 08:25N 29°45' W 095°04'3 7.5
2017-Oct-13 08:00N 29°43' W 095°01'5 9.0
2017-Oct-13 07:28N 29°39' W 094°58'2110.3
2017-Oct-13 05:24N 29°21' W 094°45'  

Dump ship's entire track history